sensor_id;sensor_type;location;lat;lon;timestamp;temperature;humidity
17152;DHT22;8691;50.828;4.700;2022-10-29T00:01:57;16.10;99.90
17152;DHT22;8691;50.828;4.700;2022-10-29T00:04:25;16.00;99.90
17152;DHT22;8691;50.828;4.700;2022-10-29T00:06:52;15.90;99.90
17152;DHT22;8691;50.828;4.700;2022-10-29T00:09:20;15.90;99.90
17152;DHT22;8691;50.828;4.700;2022-10-29T00:11:46;15.90;99.90
17152;DHT22;8691;50.828;4.700;2022-10-29T00:14:14;15.90;99.90
17152;DHT22;8691;50.828;4.700;2022-10-29T00:16:40;15.90;99.90
17152;DHT22;8691;50.828;4.700;2022-10-29T00:19:07;15.80;99.90
17152;DHT22;8691;50.828;4.700;2022-10-29T00:21:34;15.80;99.90
17152;DHT22;8691;50.828;4.700;2022-10-29T00:24:01;15.80;99.90
17152;DHT22;8691;50.828;4.700;2022-10-29T00:26:28;15.70;99.90
17152;DHT22;8691;50.828;4.700;2022-10-29T00:28:55;15.60;99.90
17152;DHT22;8691;50.828;4.700;2022-10-29T00:31:22;15.60;99.90
17152;DHT22;8691;50.828;4.700;2022-10-29T00:33:53;15.60;99.90
17152;DHT22;8691;50.828;4.700;2022-10-29T00:36:21;15.60;99.90
17152;DHT22;8691;50.828;4.700;2022-10-29T00:38:47;15.60;99.90
17152;DHT22;8691;50.828;4.700;2022-10-29T00:41:15;15.60;99.90
17152;DHT22;8691;50.828;4.700;2022-10-29T00:43:42;15.60;99.90
17152;DHT22;8691;50.828;4.700;2022-10-29T00:46:08;15.50;99.90
17152;DHT22;8691;50.828;4.700;2022-10-29T00:48:35;15.50;99.90
17152;DHT22;8691;50.828;4.700;2022-10-29T00:51:02;15.50;99.90
17152;DHT22;8691;50.828;4.700;2022-10-29T00:53:29;15.60;99.90
17152;DHT22;8691;50.828;4.700;2022-10-29T00:55:55;15.50;99.90
17152;DHT22;8691;50.828;4.700;2022-10-29T00:58:22;15.50;99.90
17152;DHT22;8691;50.828;4.700;2022-10-29T01:00:48;15.50;99.90
17152;DHT22;8691;50.828;4.700;2022-10-29T01:03:15;15.50;99.90
17152;DHT22;8691;50.828;4.700;2022-10-29T01:05:43;15.50;99.90
17152;DHT22;8691;50.828;4.700;2022-10-29T01:08:09;15.40;99.90
17152;DHT22;8691;50.828;4.700;2022-10-29T01:10:52;15.40;99.90
17152;DHT22;8691;50.828;4.700;2022-10-29T01:13:27;15.40;99.90
17152;DHT22;8691;50.828;4.700;2022-10-29T01:18:47;15.40;99.90
17152;DHT22;8691;50.828;4.700;2022-10-29T01:21:39;15.30;99.90
17152;DHT22;8691;50.828;4.700;2022-10-29T01:32:30;15.20;99.90
17152;DHT22;8691;50.828;4.700;2022-10-29T01:38:10;15.30;99.90
17152;DHT22;8691;50.828;4.700;2022-10-29T01:40:35;15.30;99.90
17152;DHT22;8691;50.828;4.700;2022-10-29T01:43:09;15.30;99.90
17152;DHT22;8691;50.828;4.700;2022-10-29T01:45:38;15.30;99.90
17152;DHT22;8691;50.828;4.700;2022-10-29T01:48:07;15.30;99.90
17152;DHT22;8691;50.828;4.700;2022-10-29T01:50:33;15.30;99.90
17152;DHT22;8691;50.828;4.700;2022-10-29T01:53:01;15.20;99.90
17152;DHT22;8691;50.828;4.700;2022-10-29T01:55:29;15.20;99.90
17152;DHT22;8691;50.828;4.700;2022-10-29T01:57:58;15.20;99.90
17152;DHT22;8691;50.828;4.700;2022-10-29T02:00:25;15.20;99.90
17152;DHT22;8691;50.828;4.700;2022-10-29T02:08:35;15.20;99.90
17152;DHT22;8691;50.828;4.700;2022-10-29T02:11:00;15.20;99.90
17152;DHT22;8691;50.828;4.700;2022-10-29T02:13:30;15.00;99.90
17152;DHT22;8691;50.828;4.700;2022-10-29T02:15:56;15.00;99.90
17152;DHT22;8691;50.828;4.700;2022-10-29T02:18:23;14.90;99.90
17152;DHT22;8691;50.828;4.700;2022-10-29T02:20:50;14.80;99.90
17152;DHT22;8691;50.828;4.700;2022-10-29T02:23:17;14.70;99.90
17152;DHT22;8691;50.828;4.700;2022-10-29T02:25:44;14.60;99.90
17152;DHT22;8691;50.828;4.700;2022-10-29T02:28:12;14.40;99.90
17152;DHT22;8691;50.828;4.700;2022-10-29T02:30:38;14.40;99.90
17152;DHT22;8691;50.828;4.700;2022-10-29T02:33:05;14.40;99.90
17152;DHT22;8691;50.828;4.700;2022-10-29T02:35:32;14.40;99.90
17152;DHT22;8691;50.828;4.700;2022-10-29T02:37:59;14.40;99.90
17152;DHT22;8691;50.828;4.700;2022-10-29T02:40:26;14.30;99.90
17152;DHT22;8691;50.828;4.700;2022-10-29T02:42:52;14.40;99.90
17152;DHT22;8691;50.828;4.700;2022-10-29T02:45:19;14.40;99.90
17152;DHT22;8691;50.828;4.700;2022-10-29T02:47:46;14.40;99.90
17152;DHT22;8691;50.828;4.700;2022-10-29T02:50:13;14.40;99.90
17152;DHT22;8691;50.828;4.700;2022-10-29T02:52:40;14.50;99.90
17152;DHT22;8691;50.828;4.700;2022-10-29T02:55:07;14.50;99.90
17152;DHT22;8691;50.828;4.700;2022-10-29T02:57:33;14.60;99.90
17152;DHT22;8691;50.828;4.700;2022-10-29T03:00:00;14.50;99.90
17152;DHT22;8691;50.828;4.700;2022-10-29T03:02:27;14.50;99.90
17152;DHT22;8691;50.828;4.700;2022-10-29T03:04:54;14.50;99.90
17152;DHT22;8691;50.828;4.700;2022-10-29T03:07:21;14.50;99.90
17152;DHT22;8691;50.828;4.700;2022-10-29T03:09:48;14.60;99.90
17152;DHT22;8691;50.828;4.700;2022-10-29T03:12:16;14.60;99.90
17152;DHT22;8691;50.828;4.700;2022-10-29T03:14:42;14.60;99.90
17152;DHT22;8691;50.828;4.700;2022-10-29T03:17:09;14.70;99.90
17152;DHT22;8691;50.828;4.700;2022-10-29T03:19:36;14.70;99.90
17152;DHT22;8691;50.828;4.700;2022-10-29T03:22:03;14.70;99.90
17152;DHT22;8691;50.828;4.700;2022-10-29T03:24:30;14.70;99.90
17152;DHT22;8691;50.828;4.700;2022-10-29T03:26:57;14.80;99.90
17152;DHT22;8691;50.828;4.700;2022-10-29T03:29:24;14.70;99.90
17152;DHT22;8691;50.828;4.700;2022-10-29T03:31:51;14.80;99.90
17152;DHT22;8691;50.828;4.700;2022-10-29T03:34:18;14.80;99.90
17152;DHT22;8691;50.828;4.700;2022-10-29T03:36:44;14.90;99.90
17152;DHT22;8691;50.828;4.700;2022-10-29T03:39:11;15.00;99.90
17152;DHT22;8691;50.828;4.700;2022-10-29T03:41:38;15.00;99.90
17152;DHT22;8691;50.828;4.700;2022-10-29T03:44:05;15.00;99.90
17152;DHT22;8691;50.828;4.700;2022-10-29T03:46:32;15.10;99.90
17152;DHT22;8691;50.828;4.700;2022-10-29T03:48:59;15.10;99.90
17152;DHT22;8691;50.828;4.700;2022-10-29T03:51:26;15.20;99.90
17152;DHT22;8691;50.828;4.700;2022-10-29T03:53:53;15.20;99.90
17152;DHT22;8691;50.828;4.700;2022-10-29T03:56:19;15.20;99.90
17152;DHT22;8691;50.828;4.700;2022-10-29T03:58:47;15.20;99.90
17152;DHT22;8691;50.828;4.700;2022-10-29T04:01:14;15.20;99.90
17152;DHT22;8691;50.828;4.700;2022-10-29T04:03:41;15.20;99.90
17152;DHT22;8691;50.828;4.700;2022-10-29T04:06:09;15.20;99.90
17152;DHT22;8691;50.828;4.700;2022-10-29T04:08:35;15.20;99.90
17152;DHT22;8691;50.828;4.700;2022-10-29T04:11:02;15.20;99.90
17152;DHT22;8691;50.828;4.700;2022-10-29T04:13:29;15.30;99.90
17152;DHT22;8691;50.828;4.700;2022-10-29T04:15:57;15.40;99.90
17152;DHT22;8691;50.828;4.700;2022-10-29T04:18:24;15.40;99.90
17152;DHT22;8691;50.828;4.700;2022-10-29T04:20:50;15.50;99.90
17152;DHT22;8691;50.828;4.700;2022-10-29T04:23:17;15.50;99.90
17152;DHT22;8691;50.828;4.700;2022-10-29T04:25:54;15.50;99.90
17152;DHT22;8691;50.828;4.700;2022-10-29T04:28:11;15.60;99.90
17152;DHT22;8691;50.828;4.700;2022-10-29T04:30:37;15.60;99.90
17152;DHT22;8691;50.828;4.700;2022-10-29T04:33:04;15.60;99.90
17152;DHT22;8691;50.828;4.700;2022-10-29T04:35:31;15.70;99.90
17152;DHT22;8691;50.828;4.700;2022-10-29T04:37:58;15.70;99.90
17152;DHT22;8691;50.828;4.700;2022-10-29T04:40:25;15.70;99.90
17152;DHT22;8691;50.828;4.700;2022-10-29T04:42:52;15.80;99.90
17152;DHT22;8691;50.828;4.700;2022-10-29T04:45:19;15.80;99.90
17152;DHT22;8691;50.828;4.700;2022-10-29T04:47:46;15.80;99.90
17152;DHT22;8691;50.828;4.700;2022-10-29T04:50:13;15.80;99.90
17152;DHT22;8691;50.828;4.700;2022-10-29T04:52:40;15.70;99.90
17152;DHT22;8691;50.828;4.700;2022-10-29T04:55:06;15.70;99.90
17152;DHT22;8691;50.828;4.700;2022-10-29T04:57:33;15.70;99.90
17152;DHT22;8691;50.828;4.700;2022-10-29T05:00:00;15.70;99.90
17152;DHT22;8691;50.828;4.700;2022-10-29T05:02:26;15.70;99.90
17152;DHT22;8691;50.828;4.700;2022-10-29T05:04:53;15.70;99.90
17152;DHT22;8691;50.828;4.700;2022-10-29T05:07:20;15.60;99.90
17152;DHT22;8691;50.828;4.700;2022-10-29T05:09:48;15.60;99.90
17152;DHT22;8691;50.828;4.700;2022-10-29T05:12:15;15.60;99.90
17152;DHT22;8691;50.828;4.700;2022-10-29T05:14:43;15.60;99.90
17152;DHT22;8691;50.828;4.700;2022-10-29T05:17:10;15.50;99.90
17152;DHT22;8691;50.828;4.700;2022-10-29T05:19:36;15.60;99.90
17152;DHT22;8691;50.828;4.700;2022-10-29T05:22:03;15.60;99.90
17152;DHT22;8691;50.828;4.700;2022-10-29T05:24:30;15.60;99.90
17152;DHT22;8691;50.828;4.700;2022-10-29T05:26:57;15.60;99.90
17152;DHT22;8691;50.828;4.700;2022-10-29T05:29:24;15.50;99.90
17152;DHT22;8691;50.828;4.700;2022-10-29T05:31:53;15.50;99.90
17152;DHT22;8691;50.828;4.700;2022-10-29T05:34:20;15.50;99.90
17152;DHT22;8691;50.828;4.700;2022-10-29T05:36:47;15.50;99.90
17152;DHT22;8691;50.828;4.700;2022-10-29T05:39:14;15.50;99.90
17152;DHT22;8691;50.828;4.700;2022-10-29T05:41:41;15.50;99.90
17152;DHT22;8691;50.828;4.700;2022-10-29T05:44:07;15.50;99.90
17152;DHT22;8691;50.828;4.700;2022-10-29T05:46:35;15.50;99.90
17152;DHT22;8691;50.828;4.700;2022-10-29T05:49:01;15.50;99.90
17152;DHT22;8691;50.828;4.700;2022-10-29T05:51:28;15.30;99.90
17152;DHT22;8691;50.828;4.700;2022-10-29T05:53:56;15.20;99.90
17152;DHT22;8691;50.828;4.700;2022-10-29T05:56:23;15.20;99.90
17152;DHT22;8691;50.828;4.700;2022-10-29T05:58:50;15.10;99.90
17152;DHT22;8691;50.828;4.700;2022-10-29T06:01:17;15.00;99.90
17152;DHT22;8691;50.828;4.700;2022-10-29T06:03:44;14.90;99.90
17152;DHT22;8691;50.828;4.700;2022-10-29T06:06:11;14.70;99.90
17152;DHT22;8691;50.828;4.700;2022-10-29T06:08:38;14.60;99.90
17152;DHT22;8691;50.828;4.700;2022-10-29T06:11:06;14.60;99.90
17152;DHT22;8691;50.828;4.700;2022-10-29T06:13:33;14.50;99.90
17152;DHT22;8691;50.828;4.700;2022-10-29T06:16:00;14.50;99.90
17152;DHT22;8691;50.828;4.700;2022-10-29T06:18:28;14.50;99.90
17152;DHT22;8691;50.828;4.700;2022-10-29T06:20:58;14.50;99.90
17152;DHT22;8691;50.828;4.700;2022-10-29T06:23:24;14.40;99.90
17152;DHT22;8691;50.828;4.700;2022-10-29T06:25:51;14.40;99.90
17152;DHT22;8691;50.828;4.700;2022-10-29T06:28:18;14.40;99.90
17152;DHT22;8691;50.828;4.700;2022-10-29T06:30:48;14.30;99.90
17152;DHT22;8691;50.828;4.700;2022-10-29T06:33:14;14.30;99.90
17152;DHT22;8691;50.828;4.700;2022-10-29T06:35:41;14.20;99.90
17152;DHT22;8691;50.828;4.700;2022-10-29T06:38:08;14.20;99.90
17152;DHT22;8691;50.828;4.700;2022-10-29T06:40:34;14.20;99.90
17152;DHT22;8691;50.828;4.700;2022-10-29T06:43:02;14.30;99.90
17152;DHT22;8691;50.828;4.700;2022-10-29T06:45:29;14.30;99.90
17152;DHT22;8691;50.828;4.700;2022-10-29T06:47:56;14.30;99.90
17152;DHT22;8691;50.828;4.700;2022-10-29T06:50:23;14.30;99.90
17152;DHT22;8691;50.828;4.700;2022-10-29T06:53:02;14.40;99.90
17152;DHT22;8691;50.828;4.700;2022-10-29T06:55:28;14.40;99.90
17152;DHT22;8691;50.828;4.700;2022-10-29T06:57:56;14.50;99.90
17152;DHT22;8691;50.828;4.700;2022-10-29T07:00:22;14.60;99.90
17152;DHT22;8691;50.828;4.700;2022-10-29T07:02:49;14.60;99.90
17152;DHT22;8691;50.828;4.700;2022-10-29T07:05:16;14.70;99.90
17152;DHT22;8691;50.828;4.700;2022-10-29T07:07:43;14.70;99.90
17152;DHT22;8691;50.828;4.700;2022-10-29T07:10:10;14.80;99.90
17152;DHT22;8691;50.828;4.700;2022-10-29T07:12:42;14.70;99.90
17152;DHT22;8691;50.828;4.700;2022-10-29T07:15:09;14.70;99.90
17152;DHT22;8691;50.828;4.700;2022-10-29T07:17:35;14.80;99.90
17152;DHT22;8691;50.828;4.700;2022-10-29T07:20:03;14.80;99.90
17152;DHT22;8691;50.828;4.700;2022-10-29T07:22:29;14.80;99.90
17152;DHT22;8691;50.828;4.700;2022-10-29T07:24:55;14.90;99.90
17152;DHT22;8691;50.828;4.700;2022-10-29T07:27:22;15.00;99.90
17152;DHT22;8691;50.828;4.700;2022-10-29T07:29:49;15.10;99.90
17152;DHT22;8691;50.828;4.700;2022-10-29T07:32:16;15.20;99.90
17152;DHT22;8691;50.828;4.700;2022-10-29T07:34:43;15.30;99.90
17152;DHT22;8691;50.828;4.700;2022-10-29T07:37:10;15.70;99.90
17152;DHT22;8691;50.828;4.700;2022-10-29T07:39:37;15.70;99.90
17152;DHT22;8691;50.828;4.700;2022-10-29T07:42:03;15.90;99.90
17152;DHT22;8691;50.828;4.700;2022-10-29T07:44:30;16.20;99.90
17152;DHT22;8691;50.828;4.700;2022-10-29T07:46:57;16.60;99.90
17152;DHT22;8691;50.828;4.700;2022-10-29T07:49:24;16.70;99.90
17152;DHT22;8691;50.828;4.700;2022-10-29T07:51:51;16.90;99.90
17152;DHT22;8691;50.828;4.700;2022-10-29T07:54:18;17.30;99.90
17152;DHT22;8691;50.828;4.700;2022-10-29T07:56:45;18.00;99.90
17152;DHT22;8691;50.828;4.700;2022-10-29T07:59:12;18.10;99.90
17152;DHT22;8691;50.828;4.700;2022-10-29T08:01:40;18.50;99.90
17152;DHT22;8691;50.828;4.700;2022-10-29T08:04:07;18.50;99.90
17152;DHT22;8691;50.828;4.700;2022-10-29T08:06:34;19.10;99.90
17152;DHT22;8691;50.828;4.700;2022-10-29T08:09:00;19.30;99.90
17152;DHT22;8691;50.828;4.700;2022-10-29T08:11:27;19.40;99.90
17152;DHT22;8691;50.828;4.700;2022-10-29T08:13:54;19.60;99.90
17152;DHT22;8691;50.828;4.700;2022-10-29T08:16:23;20.20;99.90
17152;DHT22;8691;50.828;4.700;2022-10-29T08:18:50;20.30;99.90
17152;DHT22;8691;50.828;4.700;2022-10-29T08:21:17;20.20;99.90
17152;DHT22;8691;50.828;4.700;2022-10-29T08:23:44;19.80;99.90
17152;DHT22;8691;50.828;4.700;2022-10-29T08:26:11;19.60;99.90
17152;DHT22;8691;50.828;4.700;2022-10-29T08:28:37;19.60;99.90
17152;DHT22;8691;50.828;4.700;2022-10-29T08:31:04;19.60;99.90
17152;DHT22;8691;50.828;4.700;2022-10-29T08:33:31;19.60;99.90
17152;DHT22;8691;50.828;4.700;2022-10-29T08:35:58;19.70;99.90
17152;DHT22;8691;50.828;4.700;2022-10-29T08:38:24;20.00;99.90
17152;DHT22;8691;50.828;4.700;2022-10-29T08:46:00;21.50;99.90
17152;DHT22;8691;50.828;4.700;2022-10-29T08:48:34;22.00;99.90
17152;DHT22;8691;50.828;4.700;2022-10-29T08:51:12;22.50;99.90
17152;DHT22;8691;50.828;4.700;2022-10-29T08:53:37;23.20;99.90
17152;DHT22;8691;50.828;4.700;2022-10-29T08:56:06;23.70;99.90
17152;DHT22;8691;50.828;4.700;2022-10-29T08:58:36;24.20;99.90
17152;DHT22;8691;50.828;4.700;2022-10-29T09:01:02;24.80;99.90
17152;DHT22;8691;50.828;4.700;2022-10-29T09:03:29;25.50;99.90
17152;DHT22;8691;50.828;4.700;2022-10-29T09:16:52;22.60;99.90
17152;DHT22;8691;50.828;4.700;2022-10-29T09:29:45;21.80;99.90
17152;DHT22;8691;50.828;4.700;2022-10-29T09:32:15;21.70;99.90
17152;DHT22;8691;50.828;4.700;2022-10-29T09:34:42;22.00;99.90
17152;DHT22;8691;50.828;4.700;2022-10-29T09:37:17;22.60;99.90
17152;DHT22;8691;50.828;4.700;2022-10-29T09:39:40;22.60;99.90
17152;DHT22;8691;50.828;4.700;2022-10-29T09:42:08;23.20;99.90
17152;DHT22;8691;50.828;4.700;2022-10-29T09:44:45;23.60;99.90
17152;DHT22;8691;50.828;4.700;2022-10-29T09:47:24;23.70;99.90
17152;DHT22;8691;50.828;4.700;2022-10-29T09:50:20;23.80;99.90
17152;DHT22;8691;50.828;4.700;2022-10-29T09:52:45;24.10;99.90
17152;DHT22;8691;50.828;4.700;2022-10-29T09:55:28;24.10;99.90
17152;DHT22;8691;50.828;4.700;2022-10-29T09:57:54;23.80;99.90
17152;DHT22;8691;50.828;4.700;2022-10-29T10:00:24;23.70;99.90
17152;DHT22;8691;50.828;4.700;2022-10-29T10:02:55;23.50;99.90
17152;DHT22;8691;50.828;4.700;2022-10-29T10:05:24;23.50;99.90
17152;DHT22;8691;50.828;4.700;2022-10-29T10:08:11;23.60;99.90
17152;DHT22;8691;50.828;4.700;2022-10-29T10:10:50;23.70;99.90
17152;DHT22;8691;50.828;4.700;2022-10-29T10:13:16;23.90;99.90
17152;DHT22;8691;50.828;4.700;2022-10-29T10:15:47;24.30;99.90
17152;DHT22;8691;50.828;4.700;2022-10-29T10:18:19;24.60;99.90
17152;DHT22;8691;50.828;4.700;2022-10-29T10:20:46;25.10;99.90
17152;DHT22;8691;50.828;4.700;2022-10-29T10:23:28;25.40;99.90
17152;DHT22;8691;50.828;4.700;2022-10-29T10:25:54;25.50;99.90
17152;DHT22;8691;50.828;4.700;2022-10-29T10:33:31;25.00;99.90
17152;DHT22;8691;50.828;4.700;2022-10-29T10:36:00;24.80;99.90
17152;DHT22;8691;50.828;4.700;2022-10-29T10:38:26;24.90;99.90
17152;DHT22;8691;50.828;4.700;2022-10-29T10:40:56;24.80;99.90
17152;DHT22;8691;50.828;4.700;2022-10-29T10:43:23;24.60;99.90
17152;DHT22;8691;50.828;4.700;2022-10-29T10:45:59;24.20;99.90
17152;DHT22;8691;50.828;4.700;2022-10-29T10:48:16;24.10;99.90
17152;DHT22;8691;50.828;4.700;2022-10-29T10:50:43;24.20;99.90
17152;DHT22;8691;50.828;4.700;2022-10-29T10:53:18;24.30;99.90
17152;DHT22;8691;50.828;4.700;2022-10-29T10:55:47;24.30;99.90
17152;DHT22;8691;50.828;4.700;2022-10-29T11:00:58;24.40;99.90
17152;DHT22;8691;50.828;4.700;2022-10-29T11:06:19;24.60;99.90
17152;DHT22;8691;50.828;4.700;2022-10-29T11:08:49;24.70;99.90
17152;DHT22;8691;50.828;4.700;2022-10-29T11:11:18;24.80;99.90
17152;DHT22;8691;50.828;4.700;2022-10-29T11:13:44;24.80;99.90
17152;DHT22;8691;50.828;4.700;2022-10-29T11:19:12;24.70;99.90
17152;DHT22;8691;50.828;4.700;2022-10-29T11:24:17;24.50;99.90
17152;DHT22;8691;50.828;4.700;2022-10-29T11:26:49;24.30;99.90
17152;DHT22;8691;50.828;4.700;2022-10-29T11:29:30;24.40;99.90
17152;DHT22;8691;50.828;4.700;2022-10-29T11:32:16;24.40;99.90
17152;DHT22;8691;50.828;4.700;2022-10-29T11:34:52;24.40;99.90
17152;DHT22;8691;50.828;4.700;2022-10-29T11:39:48;24.00;99.90
17152;DHT22;8691;50.828;4.700;2022-10-29T11:42:14;24.00;99.90
17152;DHT22;8691;50.828;4.700;2022-10-29T11:44:41;24.00;99.90
17152;DHT22;8691;50.828;4.700;2022-10-29T11:52:40;24.70;99.90
17152;DHT22;8691;50.828;4.700;2022-10-29T11:55:13;24.70;99.90
17152;DHT22;8691;50.828;4.700;2022-10-29T12:00:19;24.60;99.90
17152;DHT22;8691;50.828;4.700;2022-10-29T12:14:04;24.60;99.90
17152;DHT22;8691;50.828;4.700;2022-10-29T12:16:39;24.50;99.90
17152;DHT22;8691;50.828;4.700;2022-10-29T12:19:22;24.40;99.90
17152;DHT22;8691;50.828;4.700;2022-10-29T12:26:48;23.80;99.90
17152;DHT22;8691;50.828;4.700;2022-10-29T12:29:41;23.80;99.90
17152;DHT22;8691;50.828;4.700;2022-10-29T12:32:12;23.80;99.90
17152;DHT22;8691;50.828;4.700;2022-10-29T12:34:51;23.80;99.90
17152;DHT22;8691;50.828;4.700;2022-10-29T12:37:28;23.90;99.90
17152;DHT22;8691;50.828;4.700;2022-10-29T12:39:54;23.90;99.90
17152;DHT22;8691;50.828;4.700;2022-10-29T12:42:26;24.00;99.90
17152;DHT22;8691;50.828;4.700;2022-10-29T12:55:59;24.60;99.90
17152;DHT22;8691;50.828;4.700;2022-10-29T12:58:45;24.70;99.90
17152;DHT22;8691;50.828;4.700;2022-10-29T13:09:16;25.20;99.70
17152;DHT22;8691;50.828;4.700;2022-10-29T13:11:58;25.10;99.60
17152;DHT22;8691;50.828;4.700;2022-10-29T13:14:40;25.40;99.40
17152;DHT22;8691;50.828;4.700;2022-10-29T13:17:18;25.40;99.40
17152;DHT22;8691;50.828;4.700;2022-10-29T13:19:47;25.50;99.20
17152;DHT22;8691;50.828;4.700;2022-10-29T13:24:42;25.40;99.00
17152;DHT22;8691;50.828;4.700;2022-10-29T13:29:48;25.30;99.40
17152;DHT22;8691;50.828;4.700;2022-10-29T13:32:33;25.20;99.00
17152;DHT22;8691;50.828;4.700;2022-10-29T13:34:57;25.10;99.20
17152;DHT22;8691;50.828;4.700;2022-10-29T13:43:00;25.10;98.80
17152;DHT22;8691;50.828;4.700;2022-10-29T13:45:26;25.00;99.40
17152;DHT22;8691;50.828;4.700;2022-10-29T13:47:57;25.00;99.30
17152;DHT22;8691;50.828;4.700;2022-10-29T13:50:22;24.80;99.40
17152;DHT22;8691;50.828;4.700;2022-10-29T13:52:50;24.70;99.70
17152;DHT22;8691;50.828;4.700;2022-10-29T13:55:17;24.40;99.90
17152;DHT22;8691;50.828;4.700;2022-10-29T13:58:01;24.20;99.90
17152;DHT22;8691;50.828;4.700;2022-10-29T14:00:26;24.20;99.90
17152;DHT22;8691;50.828;4.700;2022-10-29T14:03:01;24.20;99.90
17152;DHT22;8691;50.828;4.700;2022-10-29T14:08:22;24.10;99.90
17152;DHT22;8691;50.828;4.700;2022-10-29T14:10:47;24.00;99.90
17152;DHT22;8691;50.828;4.700;2022-10-29T14:18:34;23.80;99.90
17152;DHT22;8691;50.828;4.700;2022-10-29T14:21:00;23.80;99.90
17152;DHT22;8691;50.828;4.700;2022-10-29T14:23:26;23.70;99.90
17152;DHT22;8691;50.828;4.700;2022-10-29T14:25:53;23.60;99.90
17152;DHT22;8691;50.828;4.700;2022-10-29T14:28:23;23.50;99.90
17152;DHT22;8691;50.828;4.700;2022-10-29T14:30:47;23.30;99.90
17152;DHT22;8691;50.828;4.700;2022-10-29T14:33:22;23.30;99.90
17152;DHT22;8691;50.828;4.700;2022-10-29T14:35:49;23.20;99.90
17152;DHT22;8691;50.828;4.700;2022-10-29T14:38:15;23.20;99.90
17152;DHT22;8691;50.828;4.700;2022-10-29T14:40:43;23.10;99.90
17152;DHT22;8691;50.828;4.700;2022-10-29T14:43:23;23.00;99.90
17152;DHT22;8691;50.828;4.700;2022-10-29T14:45:45;22.80;99.90
17152;DHT22;8691;50.828;4.700;2022-10-29T14:48:12;22.70;99.90
17152;DHT22;8691;50.828;4.700;2022-10-29T14:50:43;22.70;99.90
17152;DHT22;8691;50.828;4.700;2022-10-29T14:53:06;22.60;99.90
17152;DHT22;8691;50.828;4.700;2022-10-29T14:55:32;22.60;99.90
17152;DHT22;8691;50.828;4.700;2022-10-29T15:00:37;22.50;99.90
17152;DHT22;8691;50.828;4.700;2022-10-29T15:03:07;22.40;99.90
17152;DHT22;8691;50.828;4.700;2022-10-29T15:05:35;22.30;99.90
17152;DHT22;8691;50.828;4.700;2022-10-29T15:10:50;22.10;99.90
17152;DHT22;8691;50.828;4.700;2022-10-29T15:13:29;22.10;99.90
17152;DHT22;8691;50.828;4.700;2022-10-29T15:16:01;21.90;99.90
17152;DHT22;8691;50.828;4.700;2022-10-29T15:18:23;21.90;99.90
17152;DHT22;8691;50.828;4.700;2022-10-29T15:20:51;21.70;99.90
17152;DHT22;8691;50.828;4.700;2022-10-29T15:23:26;21.70;99.90
17152;DHT22;8691;50.828;4.700;2022-10-29T15:25:58;21.60;99.90
17152;DHT22;8691;50.828;4.700;2022-10-29T15:28:23;21.50;99.90
17152;DHT22;8691;50.828;4.700;2022-10-29T15:30:49;21.50;99.90
17152;DHT22;8691;50.828;4.700;2022-10-29T15:33:17;21.30;99.90
17152;DHT22;8691;50.828;4.700;2022-10-29T15:35:53;21.30;99.90
17152;DHT22;8691;50.828;4.700;2022-10-29T15:43:46;21.00;99.90
17152;DHT22;8691;50.828;4.700;2022-10-29T15:46:03;20.90;99.90
17152;DHT22;8691;50.828;4.700;2022-10-29T15:48:34;20.80;99.90
17152;DHT22;8691;50.828;4.700;2022-10-29T15:50:58;20.80;99.90
17152;DHT22;8691;50.828;4.700;2022-10-29T15:53:25;20.60;99.90
17152;DHT22;8691;50.828;4.700;2022-10-29T15:55:52;20.60;99.90
17152;DHT22;8691;50.828;4.700;2022-10-29T15:58:20;20.40;99.90
17152;DHT22;8691;50.828;4.700;2022-10-29T16:00:47;20.40;99.90
17152;DHT22;8691;50.828;4.700;2022-10-29T16:03:15;20.20;99.90
17152;DHT22;8691;50.828;4.700;2022-10-29T16:05:41;20.20;99.90
17152;DHT22;8691;50.828;4.700;2022-10-29T16:08:30;19.90;99.90
17152;DHT22;8691;50.828;4.700;2022-10-29T16:10:36;19.80;99.90
17152;DHT22;8691;50.828;4.700;2022-10-29T16:13:02;19.80;99.90
17152;DHT22;8691;50.828;4.700;2022-10-29T16:15:29;19.70;99.90
17152;DHT22;8691;50.828;4.700;2022-10-29T16:17:56;19.70;99.90
17152;DHT22;8691;50.828;4.700;2022-10-29T16:20:22;19.60;99.90
17152;DHT22;8691;50.828;4.700;2022-10-29T16:22:49;19.50;99.90
17152;DHT22;8691;50.828;4.700;2022-10-29T16:25:20;19.50;99.90
17152;DHT22;8691;50.828;4.700;2022-10-29T16:27:46;19.50;99.90
17152;DHT22;8691;50.828;4.700;2022-10-29T16:30:13;19.50;99.90
17152;DHT22;8691;50.828;4.700;2022-10-29T16:32:39;19.50;99.90
17152;DHT22;8691;50.828;4.700;2022-10-29T16:35:13;19.40;99.90
17152;DHT22;8691;50.828;4.700;2022-10-29T16:37:39;19.50;99.90
17152;DHT22;8691;50.828;4.700;2022-10-29T16:40:07;19.40;99.90
17152;DHT22;8691;50.828;4.700;2022-10-29T16:42:35;19.40;99.90
17152;DHT22;8691;50.828;4.700;2022-10-29T16:45:02;19.40;99.90
17152;DHT22;8691;50.828;4.700;2022-10-29T16:47:29;19.40;99.90
17152;DHT22;8691;50.828;4.700;2022-10-29T16:49:56;19.30;99.90
17152;DHT22;8691;50.828;4.700;2022-10-29T16:52:23;19.40;99.90
17152;DHT22;8691;50.828;4.700;2022-10-29T16:54:50;19.40;99.90
17152;DHT22;8691;50.828;4.700;2022-10-29T16:57:17;19.40;99.90
17152;DHT22;8691;50.828;4.700;2022-10-29T16:59:43;19.40;99.90
17152;DHT22;8691;50.828;4.700;2022-10-29T17:02:10;19.40;99.90
17152;DHT22;8691;50.828;4.700;2022-10-29T17:04:37;19.30;99.90
17152;DHT22;8691;50.828;4.700;2022-10-29T17:07:03;19.30;99.90
17152;DHT22;8691;50.828;4.700;2022-10-29T17:09:30;19.20;99.90
17152;DHT22;8691;50.828;4.700;2022-10-29T17:11:57;19.20;99.90
17152;DHT22;8691;50.828;4.700;2022-10-29T17:14:24;19.10;99.90
17152;DHT22;8691;50.828;4.700;2022-10-29T17:16:51;19.00;99.90
17152;DHT22;8691;50.828;4.700;2022-10-29T17:19:18;19.00;99.90
17152;DHT22;8691;50.828;4.700;2022-10-29T17:21:46;18.70;99.90
17152;DHT22;8691;50.828;4.700;2022-10-29T17:24:13;18.70;99.90
17152;DHT22;8691;50.828;4.700;2022-10-29T17:26:40;18.70;99.90
17152;DHT22;8691;50.828;4.700;2022-10-29T17:29:07;18.70;99.90
17152;DHT22;8691;50.828;4.700;2022-10-29T17:31:35;18.70;99.90
17152;DHT22;8691;50.828;4.700;2022-10-29T17:34:02;18.70;99.90
17152;DHT22;8691;50.828;4.700;2022-10-29T17:36:28;18.70;99.90
17152;DHT22;8691;50.828;4.700;2022-10-29T17:38:55;18.60;99.90
17152;DHT22;8691;50.828;4.700;2022-10-29T17:41:22;18.60;99.90
17152;DHT22;8691;50.828;4.700;2022-10-29T17:43:49;18.50;99.90
17152;DHT22;8691;50.828;4.700;2022-10-29T17:46:15;18.40;99.90
17152;DHT22;8691;50.828;4.700;2022-10-29T17:48:42;18.30;99.90
17152;DHT22;8691;50.828;4.700;2022-10-29T17:51:09;18.30;99.90
17152;DHT22;8691;50.828;4.700;2022-10-29T17:53:36;18.30;99.90
17152;DHT22;8691;50.828;4.700;2022-10-29T17:56:04;18.20;99.90
17152;DHT22;8691;50.828;4.700;2022-10-29T17:58:31;18.20;99.90
17152;DHT22;8691;50.828;4.700;2022-10-29T18:01:07;18.20;99.90
17152;DHT22;8691;50.828;4.700;2022-10-29T18:03:34;18.30;99.90
17152;DHT22;8691;50.828;4.700;2022-10-29T18:06:01;18.30;99.90
17152;DHT22;8691;50.828;4.700;2022-10-29T18:08:27;18.40;99.90
17152;DHT22;8691;50.828;4.700;2022-10-29T18:11:07;18.40;99.90